Time;durP1;ratioP1;P1;durP2;ratioP2;P2;SDS_P1;SDS_P2;PMS_P1;PMS_P2;Temp;Humidity;BMP_temperature;BMP_pressure;BME280_temperature;BME280_humidity;BME280_pressure;Samples;Min_cycle;Max_cycle;Signal;HPM_P1;HPM_P2
2022/03/24 08:59:52;;;;;;;;;;;;;;;16.56;24.66;100114.72;5108776;27;1205;-68
2022/03/24 09:02:18;;;;;;;;;;;;;;;16.74;25.41;100106.72;5109434;28;811;-60
2022/03/24 09:04:44;;;;;;;;;;;;;;;17.19;25.19;100107.97;5108381;28;1341;-59
2022/03/24 09:07:11;;;;;;;;;;;;;;;17.42;24.85;100106.94;5109449;28;818;-59
2022/03/24 09:09:38;;;;;;;;;;;;;;;17.19;24.23;100105.97;5109171;28;821;-58
2022/03/24 09:12:05;;;;;;;;;;;;;;;16.81;24.62;100097.41;5109222;28;790;-59
2022/03/24 09:14:32;;;;;;;;;;;;;;;16.68;24.71;100102.88;5109253;28;888;-59
2022/03/24 09:16:58;;;;;;;;;;;;;;;17.06;23.42;100096.75;5109087;28;951;-59
2022/03/24 09:19:25;;;;;;;;;;;;;;;17.16;24.21;100100.47;5109076;28;1913;-59
2022/03/24 09:21:52;;;;;;;;;;;;;;;17.48;23.61;100094.00;5109113;28;802;-59
2022/03/24 09:24:19;;;;;;;;;;;;;;;17.40;24.39;100099.00;5109078;28;809;-59
2022/03/24 09:26:46;;;;;;;;;;;;;;;17.15;24.43;100102.47;5108977;28;902;-59
2022/03/24 09:29:14;;;;;;;;;;;;;;;17.30;24.38;100091.69;5109156;28;845;-59
2022/03/24 09:31:41;;;;;;;;;;;;;;;17.27;22.98;100093.38;5108777;28;837;-59
2022/03/24 09:34:09;;;;;;;;;;;;;;;17.25;23.83;100089.44;5109111;28;872;-59
2022/03/24 09:36:36;;;;;;;;;;;;;;;17.16;23.00;100084.50;5108821;28;825;-59
2022/03/24 09:39:03;;;;;;;;;;;;;;;17.06;24.02;100088.38;5108725;28;1886;-59
2022/03/24 09:41:31;;;;;;;;;;;;;;;17.22;25.03;100091.13;5108681;28;845;-59
2022/03/24 09:43:58;;;;;;;;;;;;;;;17.46;23.55;100082.47;5108646;28;806;-59
2022/03/24 09:46:26;;;;;;;;;;;;;;;17.64;24.72;100077.13;5108631;28;857;-59
2022/03/24 09:48:53;;;;;;;;;;;;;;;17.77;23.95;100077.16;5108791;28;818;-59
2022/03/24 09:51:21;;;;;;;;;;;;;;;17.50;24.75;100075.56;5108555;28;802;-59
2022/03/24 09:53:46;;;;;;;;;;;;;;;17.46;24.00;100069.28;5108453;28;857;-59
2022/03/24 09:56:14;;;;;;;;;;;;;;;17.36;25.29;100067.56;5107047;28;1300;-59
2022/03/24 10:27:25;;;;;;;;;;;;;;;18.10;22.69;100046.22;5014062;28;1585;-58
2022/03/24 10:29:54;;;;;;;;;;;;;;;18.35;22.02;100049.00;4996735;28;834;-59
2022/03/24 10:32:22;;;;;;;;;;;;;;;17.97;21.43;100060.22;5014002;28;911;-59
2022/03/24 10:34:50;;;;;;;;;;;;;;;17.71;21.37;100054.59;5014101;28;830;-59
2022/03/24 10:37:19;;;;;;;;;;;;;;;17.70;22.39;100047.41;5014098;28;791;-58
2022/03/24 10:39:55;;;;;;;;;;;;;;;17.67;21.55;100041.94;5013996;28;1906;-58
2022/03/24 10:42:24;;;;;;;;;;;;;;;17.67;22.26;100025.19;5014277;28;806;-59
2022/03/24 10:45:04;;;;;;;;;;;;;;;17.68;23.38;100029.53;5014028;28;846;-58
2022/03/24 10:47:39;;;;;;;;;;;;;;;17.71;21.80;100023.84;5013913;28;837;-59
2022/03/24 10:50:25;;;;;;;;;;;;;;;17.75;21.89;100032.91;5013631;28;935;-59
2022/03/24 10:52:53;;;;;;;;;;;;;;;17.79;21.48;100013.19;5013809;28;830;-59
2022/03/24 10:55:43;;;;;;;;;;;;;;;17.89;21.59;100014.13;5013503;28;932;-58
2022/03/24 10:58:17;;;;;;;;;;;;;;;18.29;22.27;100013.66;5005741;28;1921;-59
2022/03/24 11:00:46;;;;;;;;;;;;;;;18.69;22.87;100004.69;5013666;28;842;-59
2022/03/24 11:03:14;;;;;;;;;;;;;;;18.64;22.26;99999.66;5013556;28;787;-59
2022/03/24 11:05:41;;;;;;;;;;;;;;;18.65;21.68;100002.03;5013587;28;787;-59
2022/03/24 11:08:10;;;;;;;;;;;;;;;18.45;21.56;99984.72;5013344;28;1005;-58
2022/03/24 11:10:46;;;;;;;;;;;;;;;18.14;21.81;99985.38;5013492;28;874;-58
2022/03/24 11:13:43;;;;;;;;;;;;;;;17.90;22.34;99993.31;5013873;28;795;-58
2022/03/24 11:16:11;;;;;;;;;;;;;;;18.23;22.53;99999.44;5000576;28;1321;-58
2022/03/24 11:18:39;;;;;;;;;;;;;;;18.26;22.72;99994.94;5013071;28;1885;-58
2022/03/24 11:21:16;;;;;;;;;;;;;;;18.14;22.41;99988.94;4994896;28;1260;-57
2022/03/24 11:23:44;;;;;;;;;;;;;;;17.94;22.69;99977.22;5013452;28;875;-58
2022/03/24 11:26:12;;;;;;;;;;;;;;;18.15;22.94;99981.31;5013305;28;1396;-58
2022/03/24 11:28:39;;;;;;;;;;;;;;;18.51;22.50;99966.13;5013264;28;835;-58
2022/03/24 11:31:07;;;;;;;;;;;;;;;18.66;21.98;99953.19;5013388;28;835;-57
2022/03/24 11:33:37;;;;;;;;;;;;;;;18.65;22.10;99943.22;5013109;28;890;-58
2022/03/24 11:36:04;;;;;;;;;;;;;;;18.61;22.16;99939.78;5013265;28;886;-58
2022/03/24 11:38:31;;;;;;;;;;;;;;;18.99;22.09;99922.03;5012910;28;1902;-58
2022/03/24 11:41:04;;;;;;;;;;;;;;;19.21;22.72;99938.03;5012973;28;816;-58
2022/03/24 11:43:31;;;;;;;;;;;;;;;19.28;21.92;99920.94;5012945;28;839;-59
2022/03/24 11:45:59;;;;;;;;;;;;;;;19.58;22.39;99936.16;5012602;28;959;-58
2022/03/24 11:48:35;;;;;;;;;;;;;;;19.71;21.07;99927.66;5012717;28;803;-58
2022/03/24 11:51:20;;;;;;;;;;;;;;;19.53;21.06;99942.38;4995343;28;1546;-58
2022/03/24 11:54:07;;;;;;;;;;;;;;;19.27;20.77;99919.38;5012419;28;903;-58
2022/03/24 11:56:35;;;;;;;;;;;;;;;19.26;20.66;99918.56;5012599;28;1254;-58
2022/03/24 11:59:03;;;;;;;;;;;;;;;19.61;20.14;99906.41;5012532;28;1890;-58
2022/03/24 12:01:32;;;;;;;;;;;;;;;19.74;19.56;99910.69;5012511;28;853;-58
2022/03/24 12:04:11;;;;;;;;;;;;;;;19.63;20.42;99924.34;5013179;28;847;-58
2022/03/24 12:06:48;;;;;;;;;;;;;;;19.59;19.64;99904.88;5012343;28;959;-58
2022/03/24 12:09:49;;;;;;;;;;;;;;;19.48;19.62;99896.13;5012472;28;984;-58
2022/03/24 12:12:16;;;;;;;;;;;;;;;19.92;19.93;99904.34;5012419;28;807;-59
2022/03/24 12:14:45;;;;;;;;;;;;;;;20.16;19.76;99898.13;5012353;28;867;-59
2022/03/24 12:17:19;;;;;;;;;;;;;;;20.26;18.77;99902.53;5012204;28;918;-59
2022/03/24 12:19:47;;;;;;;;;;;;;;;20.11;19.02;99905.16;5012132;28;1958;-58
2022/03/24 12:22:26;;;;;;;;;;;;;;;19.81;18.95;99897.63;5012093;28;874;-58
2022/03/24 12:25:02;;;;;;;;;;;;;;;19.64;19.51;99897.09;5012311;28;1005;-58
2022/03/24 12:27:30;;;;;;;;;;;;;;;19.74;19.21;99895.91;5012171;28;815;-58
2022/03/24 12:30:12;;;;;;;;;;;;;;;19.94;19.27;99878.66;5012158;28;871;-58
2022/03/24 12:32:39;;;;;;;;;;;;;;;20.19;19.21;99874.78;5011780;28;803;-59
2022/03/24 12:35:07;;;;;;;;;;;;;;;20.42;19.13;99879.00;5012329;28;913;-58
2022/03/24 12:37:33;;;;;;;;;;;;;;;20.46;18.29;99879.63;5011861;28;1890;-59
2022/03/24 12:40:09;;;;;;;;;;;;;;;20.34;18.62;99914.22;5011994;28;831;-58
2022/03/24 12:42:46;;;;;;;;;;;;;;;20.14;17.95;99904.25;5012012;28;1012;-59
2022/03/24 12:45:37;;;;;;;;;;;;;;;19.98;18.89;99898.91;5012196;28;802;-59
2022/03/24 12:48:08;;;;;;;;;;;;;;;19.99;18.57;99894.84;5012300;28;811;-58
2022/03/24 12:50:38;;;;;;;;;;;;;;;20.37;18.86;99883.19;5011782;28;870;-58
2022/03/24 12:53:07;;;;;;;;;;;;;;;20.41;18.80;99883.03;5011780;28;866;-58
2022/03/24 12:55:33;;;;;;;;;;;;;;;20.50;18.55;99868.97;5011707;28;922;-58
2022/03/24 12:58:12;;;;;;;;;;;;;;;20.49;18.20;99877.88;5011692;28;1890;-58
2022/03/24 13:00:41;;;;;;;;;;;;;;;20.27;18.01;99883.66;5011720;28;831;-59
2022/03/24 13:03:08;;;;;;;;;;;;;;;20.52;18.49;99890.97;5011881;28;895;-58
2022/03/24 13:05:36;;;;;;;;;;;;;;;20.26;18.46;99870.88;5011963;28;819;-59
2022/03/24 13:08:05;;;;;;;;;;;;;;;20.09;18.59;99876.78;5011722;28;839;-58
2022/03/24 13:10:33;;;;;;;;;;;;;;;20.30;19.23;99877.88;5011560;28;886;-58
2022/03/24 13:13:00;;;;;;;;;;;;;;;21.00;18.59;99872.34;5011643;28;799;-59
2022/03/24 13:15:37;;;;;;;;;;;;;;;20.91;18.83;99857.53;5011562;28;957;-59
2022/03/24 13:18:08;;;;;;;;;;;;;;;20.92;18.11;99862.69;4993955;28;1914;-58
2022/03/24 13:20:36;;;;;;;;;;;;;;;20.63;19.15;99851.97;5011596;28;799;-58
2022/03/24 13:23:04;;;;;;;;;;;;;;;20.84;17.89;99857.88;5011375;28;878;-58
2022/03/24 13:25:31;;;;;;;;;;;;;;;21.40;17.84;99865.66;5011755;28;1206;-59
2022/03/24 13:27:58;;;;;;;;;;;;;;;20.84;17.52;99867.06;5012164;28;768;-59
2022/03/24 13:30:27;;;;;;;;;;;;;;;20.49;18.45;99852.63;5011555;28;813;-58
2022/03/24 13:32:56;;;;;;;;;;;;;;;20.75;17.58;99844.66;5011492;28;906;-58
2022/03/24 13:35:23;;;;;;;;;;;;;;;20.98;17.67;99852.38;5011358;28;835;-58
2022/03/24 13:37:53;;;;;;;;;;;;;;;21.02;18.12;99855.03;4993615;28;1910;-59
2022/03/24 13:40:22;;;;;;;;;;;;;;;20.56;17.70;99855.88;5011289;28;875;-58
2022/03/24 13:42:49;;;;;;;;;;;;;;;20.22;18.34;99853.41;5011189;28;1036;-58
2022/03/24 13:45:16;;;;;;;;;;;;;;;20.17;17.99;99844.38;5013177;28;792;-58
2022/03/24 13:47:43;;;;;;;;;;;;;;;20.48;17.72;99842.63;5014949;28;934;-58
2022/03/24 13:50:10;;;;;;;;;;;;;;;20.03;18.12;99853.41;5015030;28;783;-58
2022/03/24 13:52:41;;;;;;;;;;;;;;;20.17;17.93;99849.22;4997202;28;1498;-58
2022/03/24 13:55:12;;;;;;;;;;;;;;;20.05;17.11;99862.13;5014913;28;881;-58
2022/03/24 13:57:48;;;;;;;;;;;;;;;20.08;16.41;99849.19;5014667;28;1886;-58
2022/03/24 14:00:30;;;;;;;;;;;;;;;20.30;16.70;99843.44;5014867;28;787;-58
2022/03/24 14:03:03;;;;;;;;;;;;;;;20.01;17.31;99855.13;5014962;28;959;-58
2022/03/24 14:05:48;;;;;;;;;;;;;;;19.88;17.07;99842.00;5014703;28;835;-58
2022/03/24 14:08:33;;;;;;;;;;;;;;;19.86;16.92;99841.69;5014896;28;851;-58
2022/03/24 14:11:07;;;;;;;;;;;;;;;19.64;17.86;99841.03;5014545;28;941;-58
2022/03/24 14:13:38;;;;;;;;;;;;;;;19.75;17.12;99838.56;5014415;28;950;-58
2022/03/24 14:16:16;;;;;;;;;;;;;;;19.71;17.70;99832.34;5014625;28;902;-58
2022/03/24 14:19:02;;;;;;;;;;;;;;;19.51;17.84;99825.09;5014477;28;1939;-58
2022/03/24 14:21:37;;;;;;;;;;;;;;;19.37;17.61;99820.88;5014349;28;879;-58
2022/03/24 14:24:04;;;;;;;;;;;;;;;19.59;17.81;99831.22;5014457;28;1013;-58
2022/03/24 14:26:31;;;;;;;;;;;;;;;19.58;17.37;99833.22;5014215;28;1299;-58
2022/03/24 14:28:57;;;;;;;;;;;;;;;19.58;17.43;99835.25;5014308;28;945;-58
2022/03/24 14:31:25;;;;;;;;;;;;;;;19.72;17.39;99826.28;5014213;28;835;-58
2022/03/24 14:33:59;;;;;;;;;;;;;;;19.82;17.39;99829.06;5014151;28;858;-58
2022/03/24 14:36:26;;;;;;;;;;;;;;;19.98;16.99;99834.41;5014086;28;938;-58
2022/03/24 14:39:06;;;;;;;;;;;;;;;19.89;17.17;99832.38;5013987;28;1964;-58
2022/03/24 14:41:35;;;;;;;;;;;;;;;19.96;17.22;99829.25;5014096;28;846;-58
2022/03/24 14:44:02;;;;;;;;;;;;;;;20.08;17.16;99827.53;5013944;28;855;-58
2022/03/24 14:46:30;;;;;;;;;;;;;;;20.43;17.17;99826.44;5013865;28;957;-58
2022/03/24 14:48:56;;;;;;;;;;;;;;;20.31;16.62;99831.75;5013926;28;889;-58
2022/03/24 14:51:23;;;;;;;;;;;;;;;20.10;17.06;99838.28;5013780;28;799;-58
2022/03/24 14:53:50;;;;;;;;;;;;;;;20.03;17.12;99835.78;5013818;28;1057;-58
2022/03/24 14:56:16;;;;;;;;;;;;;;;20.25;17.46;99844.03;4996084;28;1307;-58
2022/03/24 14:58:43;;;;;;;;;;;;;;;20.43;18.69;99849.66;5013580;28;1890;-58
2022/03/24 15:01:10;;;;;;;;;;;;;;;19.93;21.00;99858.25;5013862;28;886;-58
2022/03/24 15:03:37;;;;;;;;;;;;;;;19.29;22.03;99853.22;5013841;28;923;-58
2022/03/24 15:06:03;;;;;;;;;;;;;;;18.89;23.09;99858.81;5013576;28;807;-58
2022/03/24 15:08:29;;;;;;;;;;;;;;;18.41;23.79;99855.34;5013480;28;830;-58
2022/03/24 15:10:57;;;;;;;;;;;;;;;17.72;24.67;99846.50;5013497;28;835;-58
2022/03/24 15:13:23;;;;;;;;;;;;;;;17.37;25.06;99853.25;5012135;28;1493;-58
2022/03/24 15:16:02;;;;;;;;;;;;;;;17.22;25.63;99856.50;5013615;28;839;-58
2022/03/24 15:18:28;;;;;;;;;;;;;;;17.01;26.02;99862.75;5013234;28;1957;-58
2022/03/24 15:20:55;;;;;;;;;;;;;;;16.62;26.33;99873.00;5013229;28;787;-58
2022/03/24 15:23:22;;;;;;;;;;;;;;;16.02;27.23;99865.09;5013086;28;1015;-59
2022/03/24 15:25:49;;;;;;;;;;;;;;;15.50;27.25;99872.31;5012901;28;1304;-57
2022/03/24 15:28:16;;;;;;;;;;;;;;;15.42;27.86;99873.72;5013201;28;796;-58
2022/03/24 15:30:43;;;;;;;;;;;;;;;15.34;27.45;99867.53;5013173;28;795;-57
2022/03/24 15:33:14;;;;;;;;;;;;;;;15.15;27.74;99862.78;5012978;28;851;-57
2022/03/24 15:35:41;;;;;;;;;;;;;;;14.99;28.23;99875.47;5012971;28;970;-58
2022/03/24 15:38:09;;;;;;;;;;;;;;;14.75;28.43;99877.56;5012943;28;1922;-57
2022/03/24 15:40:37;;;;;;;;;;;;;;;14.53;28.62;99879.19;5012857;28;835;-58
2022/03/24 15:43:05;;;;;;;;;;;;;;;14.40;29.08;99887.38;5012951;28;832;-58
2022/03/24 15:45:32;;;;;;;;;;;;;;;14.33;28.91;99887.50;5013437;28;779;-58
2022/03/24 15:47:58;;;;;;;;;;;;;;;14.25;28.98;99887.66;5013276;28;803;-58
2022/03/24 15:50:25;;;;;;;;;;;;;;;14.17;29.06;99891.00;5013222;28;759;-58
2022/03/24 15:52:52;;;;;;;;;;;;;;;13.89;29.59;99893.06;5012752;28;905;-57
2022/03/24 15:55:19;;;;;;;;;;;;;;;13.64;29.76;99894.25;5011433;28;867;-57
2022/03/24 15:57:49;;;;;;;;;;;;;;;13.43;29.83;99880.72;5012572;28;1918;-57
2022/03/24 16:00:17;;;;;;;;;;;;;;;13.12;30.19;99888.25;5012727;28;866;-57
2022/03/24 16:02:45;;;;;;;;;;;;;;;12.72;31.05;99888.78;5012519;28;783;-57
2022/03/24 16:05:14;;;;;;;;;;;;;;;12.37;31.22;99901.84;5012720;28;882;-57
2022/03/24 16:07:42;;;;;;;;;;;;;;;12.04;31.81;99901.38;5012009;28;814;-57
2022/03/24 16:10:09;;;;;;;;;;;;;;;11.75;32.54;99902.78;5012386;28;917;-57
2022/03/24 16:12:42;;;;;;;;;;;;;;;11.41;33.44;99898.72;5012336;28;862;-58
2022/03/24 16:15:11;;;;;;;;;;;;;;;10.98;34.71;99900.94;5012367;28;826;-59
2022/03/24 16:17:38;;;;;;;;;;;;;;;10.57;35.11;99905.03;5012142;28;1953;-58
2022/03/24 16:20:05;;;;;;;;;;;;;;;10.20;36.38;99911.03;5012181;28;850;-59
2022/03/24 16:22:33;;;;;;;;;;;;;;;9.79;37.48;99915.00;5012254;28;895;-59
2022/03/24 16:25:00;;;;;;;;;;;;;;;9.50;37.70;99914.19;5012176;28;1418;-59
2022/03/24 16:27:27;;;;;;;;;;;;;;;9.23;38.63;99911.00;4994618;28;751;-59
2022/03/24 16:29:54;;;;;;;;;;;;;;;8.95;39.32;99911.72;5012218;28;874;-59
2022/03/24 16:32:21;;;;;;;;;;;;;;;8.69;40.37;99908.06;5012104;28;847;-59
2022/03/24 16:34:48;;;;;;;;;;;;;;;8.41;41.26;99911.47;5012025;28;854;-59
2022/03/24 16:37:15;;;;;;;;;;;;;;;8.13;41.63;99915.59;5012256;28;923;-60
2022/03/24 16:39:42;;;;;;;;;;;;;;;7.82;42.38;99916.94;5011883;28;1967;-59
2022/03/24 16:42:09;;;;;;;;;;;;;;;7.64;42.80;99910.47;5012000;28;858;-59
2022/03/24 16:44:38;;;;;;;;;;;;;;;7.51;43.18;99918.22;5011917;28;850;-59
2022/03/24 16:47:09;;;;;;;;;;;;;;;7.39;43.75;99924.81;5011824;28;939;-59
2022/03/24 16:49:36;;;;;;;;;;;;;;;7.36;43.59;99922.78;5012012;28;784;-59
2022/03/24 16:52:03;;;;;;;;;;;;;;;7.30;43.90;99922.38;5011983;28;930;-59
2022/03/24 16:54:30;;;;;;;;;;;;;;;7.33;43.36;99923.56;5012025;28;814;-59
2022/03/24 16:56:57;;;;;;;;;;;;;;;7.43;42.94;99917.38;5011974;28;823;-59
2022/03/24 16:59:24;;;;;;;;;;;;;;;7.43;42.93;99925.63;5011968;28;1914;-59
2022/03/24 17:01:49;;;;;;;;;;;;;;;7.47;42.44;99918.22;5011903;28;846;-59
2022/03/24 17:04:16;;;;;;;;;;;;;;;7.26;43.95;99921.53;5012230;28;735;-59
2022/03/24 17:06:42;;;;;;;;;;;;;;;7.19;43.13;99917.91;5012355;28;819;-59
2022/03/24 17:09:09;;;;;;;;;;;;;;;7.27;43.12;99917.59;5012249;28;893;-59
2022/03/24 17:11:36;;;;;;;;;;;;;;;7.12;43.96;99918.63;5011648;28;791;-59
2022/03/24 17:14:02;;;;;;;;;;;;;;;7.10;44.16;99918.22;5011846;28;811;-59
2022/03/24 17:16:29;;;;;;;;;;;;;;;7.06;44.08;99920.13;5011588;28;839;-59
2022/03/24 17:18:56;;;;;;;;;;;;;;;6.90;44.35;99923.88;5011423;28;1886;-59
2022/03/24 17:21:23;;;;;;;;;;;;;;;6.81;44.49;99919.84;5014979;28;823;-59
2022/03/24 17:23:50;;;;;;;;;;;;;;;6.78;44.79;99923.34;5015301;28;966;-59
2022/03/24 17:26:17;;;;;;;;;;;;;;;6.81;44.28;99923.38;5015242;28;1299;-59
2022/03/24 17:28:44;;;;;;;;;;;;;;;6.72;44.29;99923.69;5015375;28;815;-59
2022/03/24 17:31:11;;;;;;;;;;;;;;;6.58;44.36;99922.69;5015393;28;853;-59
2022/03/24 17:33:38;;;;;;;;;;;;;;;6.50;44.91;99930.03;5015259;28;902;-59
2022/03/24 17:36:05;;;;;;;;;;;;;;;6.55;43.78;99929.75;5015368;28;1004;-59
2022/03/24 17:38:35;;;;;;;;;;;;;;;6.33;44.81;99923.13;5015196;28;1910;-59
2022/03/24 17:41:02;;;;;;;;;;;;;;;6.18;45.18;99935.88;5015669;28;799;-59
2022/03/24 17:43:28;;;;;;;;;;;;;;;6.11;45.06;99933.03;5015307;28;851;-59
2022/03/24 17:45:55;;;;;;;;;;;;;;;5.98;45.78;99931.66;5015887;28;788;-59
2022/03/24 17:48:22;;;;;;;;;;;;;;;5.89;45.53;99929.13;5015712;28;815;-59
2022/03/24 17:50:49;;;;;;;;;;;;;;;5.91;46.42;99937.75;5015163;28;794;-59
2022/03/24 17:53:16;;;;;;;;;;;;;;;5.90;46.65;99934.22;5015085;28;819;-59
2022/03/24 17:55:42;;;;;;;;;;;;;;;5.83;46.76;99933.34;5015183;28;1259;-59
2022/03/24 17:58:08;;;;;;;;;;;;;;;5.71;47.24;99932.34;5014791;28;1944;-59
2022/03/24 18:00:35;;;;;;;;;;;;;;;5.64;47.47;99936.94;5014836;28;937;-59
2022/03/24 18:03:02;;;;;;;;;;;;;;;5.69;47.12;99926.44;5014805;28;877;-59
2022/03/24 18:05:28;;;;;;;;;;;;;;;5.80;46.67;99929.34;5014744;28;819;-58
2022/03/24 18:07:55;;;;;;;;;;;;;;;5.76;47.08;99928.53;5014995;28;811;-59
2022/03/24 18:10:22;;;;;;;;;;;;;;;5.75;47.11;99932.41;5013399;28;971;-59
2022/03/24 18:12:48;;;;;;;;;;;;;;;5.85;46.66;99931.81;5014667;28;823;-59
2022/03/24 18:15:16;;;;;;;;;;;;;;;5.96;45.91;99936.72;4996976;28;1571;-59
2022/03/24 18:17:43;;;;;;;;;;;;;;;6.05;46.24;99923.53;5014312;28;1886;-59
2022/03/24 18:20:14;;;;;;;;;;;;;;;5.95;46.61;99935.13;5014710;28;827;-59
2022/03/24 18:22:41;;;;;;;;;;;;;;;5.74;46.82;99925.38;5014674;28;858;-59
2022/03/24 18:25:08;;;;;;;;;;;;;;;5.57;46.72;99934.06;5014754;28;1374;-59
2022/03/24 18:27:35;;;;;;;;;;;;;;;5.21;47.55;99931.47;5014655;28;799;-59
2022/03/24 18:30:03;;;;;;;;;;;;;;;4.84;48.02;99929.22;5014392;28;883;-59
2022/03/24 18:32:29;;;;;;;;;;;;;;;4.57;48.51;99928.25;5014096;28;803;-59
2022/03/24 18:34:55;;;;;;;;;;;;;;;4.44;49.23;99935.03;5014560;28;851;-58
2022/03/24 18:37:22;;;;;;;;;;;;;;;4.45;49.04;99929.16;5014696;28;862;-59
2022/03/24 18:39:49;;;;;;;;;;;;;;;4.50;49.38;99926.16;5014684;28;1967;-59
2022/03/24 18:42:17;;;;;;;;;;;;;;;4.63;49.37;99924.09;5014118;28;822;-59
2022/03/24 18:44:44;;;;;;;;;;;;;;;4.80;49.48;99920.13;5014447;28;795;-59
2022/03/24 18:47:10;;;;;;;;;;;;;;;5.03;49.04;99916.66;5014503;28;737;-59
2022/03/24 18:49:38;;;;;;;;;;;;;;;5.16;48.63;99920.00;5014317;28;846;-57
2022/03/24 18:52:05;;;;;;;;;;;;;;;5.20;48.89;99923.63;5014349;28;802;-59
2022/03/24 18:54:32;;;;;;;;;;;;;;;5.31;48.32;99910.91;5014019;28;944;-57
2022/03/24 18:57:00;;;;;;;;;;;;;;;5.42;48.01;99913.81;5014237;28;889;-57
2022/03/24 18:59:27;;;;;;;;;;;;;;;5.57;47.35;99914.88;5013740;28;1885;-59
2022/03/24 19:01:53;;;;;;;;;;;;;;;5.64;47.30;99913.03;5013851;28;871;-59
2022/03/24 19:04:20;;;;;;;;;;;;;;;5.59;47.34;99907.88;5013919;28;878;-59
2022/03/24 19:06:47;;;;;;;;;;;;;;;5.65;47.15;99905.59;5013921;28;850;-58
2022/03/24 19:09:14;;;;;;;;;;;;;;;5.77;46.80;99907.38;5013857;28;780;-59
2022/03/24 19:11:41;;;;;;;;;;;;;;;5.78;46.36;99897.97;5014428;28;771;-59
2022/03/24 19:14:07;;;;;;;;;;;;;;;5.70;46.82;99897.09;5013596;28;809;-59
2022/03/24 19:16:34;;;;;;;;;;;;;;;5.61;46.96;99902.00;5014010;28;914;-59
2022/03/24 19:19:00;;;;;;;;;;;;;;;5.45;46.86;99902.16;5013261;28;1886;-59
2022/03/24 19:21:26;;;;;;;;;;;;;;;5.32;47.08;99898.78;5013270;28;939;-59
2022/03/24 19:23:53;;;;;;;;;;;;;;;5.26;48.15;99905.72;5013346;28;917;-59
2022/03/24 19:26:19;;;;;;;;;;;;;;;5.29;48.13;99904.97;5013091;28;1437;-59
2022/03/24 19:28:46;;;;;;;;;;;;;;;5.42;47.61;99906.41;5013477;28;827;-59
2022/03/24 19:31:12;;;;;;;;;;;;;;;5.55;46.98;99893.31;5013175;28;846;-59
2022/03/24 19:33:39;;;;;;;;;;;;;;;5.60;47.15;99905.94;5013082;28;895;-59
2022/03/24 19:36:06;;;;;;;;;;;;;;;5.33;47.42;99900.38;5013044;28;882;-59
2022/03/24 19:38:32;;;;;;;;;;;;;;;5.17;48.31;99896.97;5013157;28;1906;-59
2022/03/24 19:40:59;;;;;;;;;;;;;;;5.02;48.58;99906.84;5012962;28;795;-59
2022/03/24 19:43:27;;;;;;;;;;;;;;;4.83;49.05;99894.75;5012220;28;869;-59
2022/03/24 19:45:53;;;;;;;;;;;;;;;4.87;49.22;99901.09;5012674;28;896;-58
2022/03/24 19:48:20;;;;;;;;;;;;;;;4.88;49.29;99891.72;5012925;28;842;-58
2022/03/24 19:50:46;;;;;;;;;;;;;;;4.84;49.35;99885.41;5012850;28;811;-59
2022/03/24 19:53:14;;;;;;;;;;;;;;;4.81;49.16;99879.84;5012727;28;1037;-59
2022/03/24 19:55:42;;;;;;;;;;;;;;;4.85;48.94;99886.97;5012672;28;935;-59
2022/03/24 19:58:09;;;;;;;;;;;;;;;5.05;48.79;99878.72;5012519;28;1953;-58
2022/03/24 20:00:36;;;;;;;;;;;;;;;5.24;48.12;99875.94;5011361;28;1591;-59
2022/03/24 20:03:02;;;;;;;;;;;;;;;5.36;48.09;99865.97;5012489;28;950;-59
2022/03/24 20:05:30;;;;;;;;;;;;;;;5.22;48.49;99867.28;5012770;28;807;-59
2022/03/24 20:07:57;;;;;;;;;;;;;;;5.15;48.55;99861.69;5012351;28;990;-59
2022/03/24 20:10:24;;;;;;;;;;;;;;;5.40;47.91;99864.06;5012445;28;1020;-59
2022/03/24 20:12:51;;;;;;;;;;;;;;;5.48;47.54;99860.28;5012591;28;1156;-59
2022/03/24 20:15:17;;;;;;;;;;;;;;;5.46;47.27;99857.13;5012325;28;859;-59
2022/03/24 20:17:47;;;;;;;;;;;;;;;5.37;47.82;99862.06;5012530;28;791;-59
2022/03/24 20:20:15;;;;;;;;;;;;;;;5.30;47.91;99860.78;5012184;28;906;-59
2022/03/24 20:22:42;;;;;;;;;;;;;;;5.14;48.24;99851.88;5012559;28;803;-59
2022/03/24 20:25:09;;;;;;;;;;;;;;;5.13;48.27;99863.22;5012234;28;1364;-59
2022/03/24 20:27:37;;;;;;;;;;;;;;;5.18;48.13;99858.22;5012110;28;913;-59
2022/03/24 20:30:05;;;;;;;;;;;;;;;5.02;48.34;99863.81;5012375;28;851;-59
2022/03/24 20:32:33;;;;;;;;;;;;;;;4.88;49.08;99855.31;5012720;28;907;-59
2022/03/24 20:35:00;;;;;;;;;;;;;;;4.89;49.11;99859.66;5012202;28;1212;-59
2022/03/24 20:37:26;;;;;;;;;;;;;;;4.94;49.43;99853.09;5012316;28;807;-59
2022/03/24 20:39:53;;;;;;;;;;;;;;;4.96;49.10;99859.78;5012218;28;2005;-59
2022/03/24 20:42:20;;;;;;;;;;;;;;;4.86;48.98;99863.88;5012173;28;850;-59
2022/03/24 20:44:47;;;;;;;;;;;;;;;4.69;49.37;99859.69;5012098;28;835;-59
2022/03/24 20:47:14;;;;;;;;;;;;;;;4.66;49.90;99851.38;5012305;28;847;-59
2022/03/24 20:49:41;;;;;;;;;;;;;;;4.85;49.52;99840.41;5012221;28;799;-59
2022/03/24 20:52:07;;;;;;;;;;;;;;;5.07;48.34;99844.31;5012027;28;874;-59
2022/03/24 20:54:34;;;;;;;;;;;;;;;5.09;49.09;99844.75;5012232;28;866;-59
2022/03/24 20:57:01;;;;;;;;;;;;;;;5.03;49.09;99837.97;5011884;28;827;-59
2022/03/24 20:59:26;;;;;;;;;;;;;;;5.19;48.59;99834.38;5012475;28;1941;-59
2022/03/24 21:01:53;;;;;;;;;;;;;;;5.44;47.93;99830.09;5011626;28;1427;-59
2022/03/24 21:04:19;;;;;;;;;;;;;;;5.66;46.87;99819.44;5011801;28;811;-59
2022/03/24 21:06:46;;;;;;;;;;;;;;;5.71;47.60;99821.88;5011682;28;816;-59
2022/03/24 21:09:13;;;;;;;;;;;;;;;5.65;47.12;99826.09;5011636;28;898;-58
2022/03/24 21:11:40;;;;;;;;;;;;;;;5.45;47.53;99820.69;5011592;28;938;-59
2022/03/24 21:14:07;;;;;;;;;;;;;;;4.83;48.85;99831.75;5011806;28;914;-59
2022/03/24 21:16:34;;;;;;;;;;;;;;;4.23;49.81;99832.16;5011598;28;1056;-59
2022/03/24 21:19:01;;;;;;;;;;;;;;;4.02;50.55;99837.16;5011428;28;1906;-59
2022/03/24 21:21:27;;;;;;;;;;;;;;;3.96;51.05;99839.38;5011596;28;870;-59
2022/03/24 21:23:54;;;;;;;;;;;;;;;3.84;51.98;99847.69;5011728;28;922;-58
2022/03/24 21:26:21;;;;;;;;;;;;;;;3.79;52.53;99845.22;5011321;28;1088;-59
2022/03/24 21:28:48;;;;;;;;;;;;;;;3.74;52.44;99842.78;5011495;28;851;-59
2022/03/24 21:31:16;;;;;;;;;;;;;;;4.02;51.29;99842.63;5011521;28;862;-59
2022/03/24 21:33:43;;;;;;;;;;;;;;;4.65;49.23;99833.34;5011486;28;839;-59
2022/03/24 21:36:10;;;;;;;;;;;;;;;4.89;48.18;99835.78;5011610;28;870;-59
2022/03/24 21:38:38;;;;;;;;;;;;;;;5.01;47.75;99839.50;5011297;28;1964;-59
2022/03/24 21:41:05;;;;;;;;;;;;;;;5.04;46.88;99834.09;5011345;28;894;-59
2022/03/24 21:43:32;;;;;;;;;;;;;;;5.23;46.53;99833.25;5011300;28;822;-59
2022/03/24 21:45:59;;;;;;;;;;;;;;;5.39;46.36;99830.38;5011317;28;847;-59
2022/03/24 21:48:26;;;;;;;;;;;;;;;5.23;47.13;99835.22;5011413;28;811;-59
2022/03/24 21:50:52;;;;;;;;;;;;;;;5.08;47.26;99848.66;5011218;28;870;-59
2022/03/24 21:53:19;;;;;;;;;;;;;;;4.98;47.73;99856.69;5011198;28;839;-59
2022/03/24 21:55:46;;;;;;;;;;;;;;;4.94;47.92;99848.41;5011513;28;898;-59
2022/03/24 21:58:13;;;;;;;;;;;;;;;4.80;48.99;99848.94;5011111;28;1886;-59
2022/03/24 22:00:40;;;;;;;;;;;;;;;4.75;49.32;99853.91;5011150;28;930;-59
2022/03/24 22:03:07;;;;;;;;;;;;;;;5.02;47.94;99846.59;5011404;28;843;-59
2022/03/24 22:05:34;;;;;;;;;;;;;;;5.59;46.38;99842.06;5011816;28;893;-59
2022/03/24 22:08:01;;;;;;;;;;;;;;;5.90;45.53;99834.69;4997178;28;1514;-59
2022/03/24 22:10:29;;;;;;;;;;;;;;;6.29;43.84;99834.47;5014635;28;863;-59
2022/03/24 22:12:55;;;;;;;;;;;;;;;5.90;44.53;99838.22;5014436;28;921;-59
2022/03/24 22:15:22;;;;;;;;;;;;;;;4.43;47.26;99843.09;5014611;28;826;-59
2022/03/24 22:17:49;;;;;;;;;;;;;;;3.45;49.73;99859.28;5014503;28;831;-59
2022/03/24 22:20:16;;;;;;;;;;;;;;;3.11;50.85;99857.25;5014452;28;1882;-59
2022/03/24 22:22:44;;;;;;;;;;;;;;;3.21;51.20;99846.59;5014473;28;791;-59
2022/03/24 22:25:11;;;;;;;;;;;;;;;3.34;51.06;99857.44;5014533;28;1283;-59
2022/03/24 22:27:37;;;;;;;;;;;;;;;3.94;49.10;99838.16;5014327;28;820;-59
2022/03/24 22:30:04;;;;;;;;;;;;;;;4.32;48.22;99842.09;5014323;28;838;-57
2022/03/24 22:32:30;;;;;;;;;;;;;;;4.38;48.11;99844.19;5014295;28;850;-58
2022/03/24 22:34:56;;;;;;;;;;;;;;;4.21;48.28;99831.72;5014197;28;847;-58
2022/03/24 22:37:23;;;;;;;;;;;;;;;4.05;48.16;99839.16;5014292;28;826;-59
2022/03/24 22:39:50;;;;;;;;;;;;;;;4.11;47.82;99835.00;5014028;28;1910;-60
2022/03/24 22:42:16;;;;;;;;;;;;;;;4.04;48.27;99832.13;5013975;28;918;-59
2022/03/24 22:44:43;;;;;;;;;;;;;;;3.96;48.76;99835.84;5014073;28;850;-59